Latest Weather Observations for Wangaratta

IDV60801

Issued at 5:02 pm EST Wednesday 20 September 2017 (issued every 30 minutes, with the page automatically refreshed every 10 minutes)

About weather observations | Map of weather stations | Latest weather observations for VIC | Other Formats
Station Details ID: 082138 Name: WANGARATTA AERO Lat: -36.42 Lon: 146.31 Height: 152.6 m
Data from the previous 72 hours. | See also: Recent months at Wangaratta
Date/Time
EST
Temp
°C
App
Temp
°C
Dew
Point
°C
Rel
Hum
%
Delta-T
°C
Wind Press
QNH
hPa
Press
MSL
hPa
Rain since
9am
mm
Dir  Spd
km/h
Gust
km/h
Spd
kts
Gust
kts
20/05:00pm 15.2 13.1 6.7 57 4.2 SSE 7 9 4 5 1017.9 1018.1 0.0
20/04:30pm 15.8 13.9 6.5 54 4.6 SSE 6 7 3 4 1017.9 1018.1 0.0
20/04:00pm 16.6 15.3 6.1 50 5.1 SSW 2 7 1 4 1017.9 1018.1 0.0
20/03:30pm 15.8 14.0 5.4 50 5.0 E 4 9 2 5 1018.2 1018.4 0.0
20/03:00pm 16.3 14.3 6.4 52 4.9 SW 6 13 3 7 1018.3 1018.5 0.0
20/02:30pm 15.6 13.8 5.5 51 4.9 NNW 4 9 2 5 1018.6 1018.7 0.0
20/02:00pm 15.1 12.2 4.8 50 4.9 SSW 9 17 5 9 1018.8 1018.9 0.0
20/01:30pm 14.9 11.7 5.1 52 4.6 SSW 11 17 6 9 1019.3 1019.4 0.0
20/01:00pm 14.3 10.2 4.6 52 4.5 SSW 15 22 8 12 1020.1 1020.2 0.0
20/12:30pm 13.7 10.8 4.8 55 4.2 SSE 9 15 5 8 1020.7 1020.8 0.0
20/12:00pm 13.1 10.6 4.5 56 4.0 S 7 13 4 7 1021.2 1021.3 0.0
20/11:30am 13.0 10.9 5.7 61 3.5 SSE 6 13 3 7 1021.5 1021.6 0.0
20/11:00am 12.1 9.7 5.3 63 3.2 E 7 11 4 6 1021.9 1022.0 0.0
20/10:30am 11.7 10.2 4.9 63 3.1 ESE 2 7 1 4 1022.5 1022.6 0.0
20/10:00am 9.9 7.5 4.5 69 2.4 NNE 6 11 3 6 1022.8 1022.9 0.0
20/09:30am 8.9 6.9 4.5 74 2.0 ENE 4 7 2 4 1023.3 1023.5 0.0
20/09:00am 7.8 6.5 4.2 78 1.6 CALM 0 0 0 0 1023.6 1023.8 0.0
20/08:30am 6.8 5.5 4.1 83 1.2 CALM 0 0 0 0 1023.4 1023.6 0.0
20/08:00am 4.5 3.3 4.4 99 0.0 CALM 0 0 0 0 1023.2 1023.4 0.0
20/07:30am 2.3 0.7 2.2 99 0.0 CALM 0 0 0 0 1023.3 1023.5 0.0
20/07:07am 1.4 -0.4 1.3 99 0.0 CALM 0 0 0 0 1023.0 1023.1 0.0
20/07:00am 1.0 -0.8 0.9 99 0.0 CALM 0 6 0 3 1022.9 1023.0 0.0
20/06:51am 0.9 -1.0 0.8 99 0.0 CALM 0 0 0 0 1022.9 1023.0 0.0
20/06:48am 0.6 -1.3 0.5 99 0.0 CALM 0 0 0 0 1022.9 1023.0 0.0
20/06:30am 0.0 -2.0 -0.1 99 0.0 CALM 0 0 0 0 1022.7 1022.8 0.0
20/06:26am 0.4 -1.5 0.3 99 0.0 CALM 0 0 0 0 1022.6 1022.7 0.0
20/06:10am -0.4 -2.5 -0.5 99 0.0 CALM 0 0 0 0 1022.4 1022.5 0.0
20/06:00am -0.4 -2.8 -0.5 99 0.0 SSE 2 6 1 3 1022.3 1022.4 0.0
20/05:33am 0.2 -2.5 0.1 99 0.0 SSW 4 7 2 4 1022.1 1022.2 0.0
20/05:30am 0.0 -3.1 -0.1 99 0.0 SSW 6 7 3 4 1022.0 1022.1 0.0
20/05:25am -0.2 -3.6 -0.3 99 0.0 SSW 7 7 4 4 1022.0 1022.1 0.0
20/05:14am 0.3 -2.4 0.2 99 0.0 SSW 4 7 2 4 1021.8 1021.9 0.0
20/05:05am 0.1 -3.0 0.0 99 0.0 SSW 6 7 3 4 1021.7 1021.8 0.0
20/05:00am -0.1 -2.9 -0.2 99 0.0 SSW 4 7 2 4 1021.6 1021.7 0.0
20/04:43am 0.6 -2.6 0.5 99 0.0 SSW 7 7 4 4 1021.5 1021.6 0.0
20/04:30am -0.3 -3.5 -0.4 99 0.0 SW 6 11 3 6 1021.6 1021.7 0.0
20/04:00am -0.1 -3.3 -0.2 99 0.0 WSW 6 7 3 4 1021.2 1021.3 0.0
20/03:50am 0.1 -1.9 0.0 99 0.0 CALM 0 7 0 4 1021.1 1021.2 0.0
20/03:30am 1.0 -2.0 0.9 99 0.0 SE 6 7 3 4 1021.0 1021.1 0.0
20/03:26am 0.5 -2.6 0.4 99 0.0 SE 6 7 3 4 1021.1 1021.2 0.0
20/03:00am 0.8 -1.1 0.7 99 0.0 CALM 0 0 0 0 1021.3 1021.4 0.0
20/02:30am 1.4 -1.5 1.3 99 0.0 SE 6 7 3 4 1021.4 1021.5 0.0
20/02:00am 1.4 -1.5 1.3 99 0.0 SSW 6 7 3 4 1021.6 1021.7 0.0
20/01:30am 1.0 -0.8 0.9 99 0.0 CALM 0 0 0 0 1021.9 1022.0 0.0
20/01:10am 2.5 0.9 2.4 99 0.0 CALM 0 0 0 0 1021.9 1022.0 0.0
20/01:00am 1.9 0.2 1.6 98 0.1 CALM 0 0 0 0 1022.0 1022.1 0.0
20/12:30am 2.9 1.3 2.6 98 0.1 CALM 0 0 0 0 1022.0 1022.1 0.0
20/12:00am 2.5 0.8 2.1 97 0.2 CALM 0 0 0 0 1021.7 1021.8 0.0
 
Date/Time
EST
Temp
°C
App
Temp
°C
Dew
Point
°C
Rel
Hum
%
Delta-T
°C
Wind Press
QNH
hPa
Press
MSL
hPa
Rain since
9am
mm
Dir  Spd
km/h
Gust
km/h
Spd
kts
Gust
kts
19/11:30pm 2.9 1.2 1.9 93 0.4 CALM 0 0 0 0 1021.8 1021.9 0.0
19/11:00pm 3.6 1.6 2.1 90 0.6 SE 2 7 1 4 1021.9 1022.0 0.0
19/10:30pm 5.4 3.0 4.1 91 0.6 S 6 7 3 4 1022.0 1022.1 0.0
19/10:00pm 4.4 0.9 3.4 93 0.4 SSW 11 13 6 7 1022.1 1022.2 0.0
19/09:30pm 4.5 1.4 3.5 93 0.4 SSW 9 11 5 6 1022.1 1022.2 0.0
19/09:00pm 6.1 4.9 4.4 89 0.7 CALM 0 0 0 0 1022.1 1022.2 0.0
19/08:30pm 6.6 5.1 3.2 79 1.4 CALM 0 0 0 0 1021.9 1022.0 0.0
19/08:00pm 7.6 6.2 3.8 77 1.6 CALM 0 0 0 0 1021.6 1021.7 0.0
19/07:30pm 6.2 3.4 3.2 81 1.3 W 7 9 4 5 1021.4 1021.5 0.0
19/07:00pm 7.5 5.0 3.6 76 1.7 WSW 6 7 3 4 1020.9 1021.0 0.0
19/06:30pm 10.2 7.0 3.0 61 3.1 WSW 9 11 5 6 1020.7 1020.8 0.0
19/06:00pm 10.2 6.4 4.1 66 2.7 WSW 13 15 7 8 1020.6 1020.7 0.0
19/05:30pm 12.7 9.5 4.9 59 3.6 SSW 11 15 6 8 1020.4 1020.5 0.0
19/05:00pm 13.3 7.6 2.8 49 4.7 WSW 22 30 12 16 1020.1 1020.2 0.0
19/04:30pm 13.8 7.7 3.0 48 4.9 WSW 24 33 13 18 1019.8 1019.9 0.0
19/04:00pm 14.4 8.8 3.5 48 5.0 WSW 22 32 12 17 1019.6 1019.7 0.0
19/03:30pm 12.8 7.6 3.5 53 4.2 WSW 20 28 11 15 1019.7 1019.8 0.0
19/03:00pm 13.9 8.3 3.7 50 4.6 SW 22 37 12 20 1019.5 1019.6 0.0
19/02:30pm 13.7 8.4 2.9 48 4.8 WSW 20 30 11 16 1019.7 1019.8 0.0
19/02:00pm 13.3 7.1 4.2 54 4.2 WSW 26 37 14 20 1019.7 1019.8 0.0
19/01:30pm 13.3 8.4 4.2 54 4.2 WSW 19 28 10 15 1019.7 1019.8 0.0
19/01:00pm 12.4 7.2 3.6 55 3.9 W 20 30 11 16 1019.6 1019.7 0.0
19/12:30pm 13.2 8.4 5.6 60 3.6 W 20 37 11 20 1019.7 1019.8 0.0
19/12:00pm 11.6 6.5 4.3 61 3.3 WSW 20 30 11 16 1019.7 1019.8 0.0
19/11:30am 12.7 7.9 4.4 57 3.8 SW 19 28 10 15 1019.5 1019.6 0.0
19/11:00am 12.1 6.8 4.8 61 3.4 W 22 32 12 17 1019.6 1019.7 0.0
19/10:30am 11.8 7.1 6.1 68 2.7 W 20 30 11 16 1019.8 1019.9 0.0
19/10:00am 11.4 6.8 5.5 67 2.7 WSW 19 28 10 15 1019.6 1019.7 0.0
19/09:30am 10.5 6.1 6.6 77 1.8 W 19 28 10 15 1019.6 1019.7 0.0
19/09:00am 10.1 5.4 5.9 75 1.9 W 20 26 11 14 1019.4 1019.5 0.6
19/08:30am 8.8 4.2 5.7 81 1.4 W 19 26 10 14 1019.1 1019.2 0.6
19/08:00am 8.1 3.4 5.9 86 1.0 W 20 30 11 16 1018.7 1018.8 0.6
19/07:30am 7.4 2.8 5.7 89 0.8 W 19 28 10 15 1018.0 1018.2 0.6
19/07:00am 6.7 2.8 5.5 92 0.5 W 15 20 8 11 1017.6 1017.7 0.6
19/06:30am 5.9 2.3 4.9 93 0.4 W 13 17 7 9 1017.2 1017.3 0.6
19/06:00am 6.1 2.1 5.1 93 0.4 W 15 20 8 11 1016.8 1016.9 0.6
19/05:30am 6.2 3.3 4.7 90 0.7 W 9 13 5 7 1016.1 1016.2 0.6
19/05:00am 7.1 4.7 5.3 88 0.8 WNW 7 15 4 8 1016.0 1016.1 0.6
19/04:30am 7.7 4.3 5.7 87 0.9 NW 13 20 7 11 1015.5 1015.6 0.6
19/04:00am 8.4 5.8 6.2 86 1.0 WNW 9 15 5 8 1015.4 1015.5 0.6
19/03:30am 8.2 6.2 6.3 88 0.9 WNW 6 11 3 6 1015.0 1015.1 0.6
19/03:00am 8.3 6.3 6.1 86 1.0 NW 6 13 3 7 1014.7 1014.8 0.6
19/02:30am 9.0 6.1 6.6 85 1.1 W 11 17 6 9 1014.6 1014.7 0.6
19/02:00am 8.9 6.5 6.9 87 0.9 NW 9 11 5 6 1014.3 1014.4 0.6
19/01:30am 9.2 6.8 7.0 86 1.0 NNE 9 13 5 7 1014.1 1014.2 0.6
19/01:00am 9.5 7.3 6.4 81 1.4 NNW 7 11 4 6 1014.4 1014.5 0.4
19/12:30am 9.9 6.1 5.7 75 1.9 SW 15 22 8 12 1015.1 1015.2 0.0
19/12:00am 11.5 7.4 4.5 62 3.2 WSW 15 33 8 18 1014.8 1014.9 0.0
 
Date/Time
EST
Temp
°C
App
Temp
°C
Dew
Point
°C
Rel
Hum
%
Delta-T
°C
Wind Press
QNH
hPa
Press
MSL
hPa
Rain since
9am
mm
Dir  Spd
km/h
Gust
km/h
Spd
kts
Gust
kts
18/11:30pm 12.6 10.2 6.9 68 2.8 SW 9 15 5 8 1014.6 1014.7 0.0
18/11:00pm 13.5 10.7 6.8 64 3.3 WSW 11 22 6 12 1014.4 1014.5 0.0
18/10:30pm 14.1 7.3 6.7 61 3.6 WSW 32 50 17 27 1013.7 1013.8 0.0
18/10:12pm 14.8 8.4 6.9 59 3.9 WSW 30 56 16 30 1013.8 1013.9 0.0
18/10:00pm 14.9 8.8 6.7 58 4.0 WSW 28 44 15 24 1013.6 1013.7 0.0
18/09:48pm 15.4 9.3 6.7 56 4.3 WSW 28 48 15 26 1013.5 1013.6 0.0
18/09:30pm 15.7 9.1 6.2 53 4.6 WSW 30 41 16 22 1013.3 1013.4 0.0
18/09:12pm 16.2 9.8 5.2 48 5.3 WSW 28 46 15 25 1013.1 1013.2 0.0
18/09:00pm 16.6 9.7 4.6 45 5.7 WSW 30 41 16 22 1013.0 1013.1 0.0
18/08:52pm 16.8 10.3 4.5 44 5.8 WSW 28 50 15 27 1012.8 1012.9 0.0
18/08:30pm 17.6 11.0 2.0 35 7.1 W 26 37 14 20 1012.5 1012.6 0.0
18/08:06pm 15.7 10.3 2.2 40 6.1 NW 20 39 11 21 1012.3 1012.4 0.0
18/08:00pm 15.8 11.3 1.9 39 6.2 NNW 15 17 8 9 1010.8 1010.9 0.0
18/07:30pm 15.0 11.2 4.1 48 5.1 NNW 13 17 7 9 1011.0 1011.1 0.0
18/07:00pm 13.4 12.9 7.8 69 2.8 CALM 0 0 0 0 1011.2 1011.3 0.0
18/06:30pm 12.4 11.5 6.2 66 3.0 CALM 0 0 0 0 1011.3 1011.4 0.0
18/06:00pm 13.7 11.7 6.1 60 3.7 WSW 6 7 3 4 1011.3 1011.4 0.0
18/05:30pm 17.9 13.9 3.0 37 6.9 NE 13 19 7 10 1011.4 1011.5 0.0
18/05:00pm 19.9 15.0 2.3 31 8.2 NNE 17 22 9 12 1011.4 1011.5 0.0
18/04:30pm 20.5 15.6 2.3 30 8.5 NNE 17 22 9 12 1012.1 1012.1 0.0
18/04:00pm 20.9 15.0 1.7 28 8.9 NNE 22 30 12 16 1012.4 1012.5 0.0
18/03:30pm 20.9 14.9 1.2 27 9.0 NNE 22 35 12 19 1012.8 1012.9 0.0
18/03:00pm 20.9 14.2 1.2 27 9.0 NNE 26 37 14 20 1013.4 1013.5 0.0
18/02:30pm 21.0 13.9 1.3 27 9.1 NNE 28 43 15 23 1014.1 1014.2 0.0
18/02:00pm 20.0 12.9 1.4 29 8.5 NNE 28 41 15 22 1014.9 1015.0 0.0
18/01:30pm 19.9 13.2 3.6 34 7.8 NNE 28 35 15 19 1015.6 1015.7 0.0
18/01:00pm 19.2 12.5 3.8 36 7.3 NNE 28 43 15 23 1016.4 1016.5 0.0
18/12:30pm 18.4 12.3 4.6 40 6.7 NNE 26 35 14 19 1017.0 1017.1 0.0
18/12:00pm 17.7 12.2 5.9 46 5.8 NNE 24 37 13 20 1017.7 1017.9 0.0
18/11:30am 16.8 11.6 5.4 47 5.5 NNE 22 32 12 17 1018.6 1018.7 0.0
18/11:00am 16.0 9.7 3.8 44 5.7 N 26 33 14 18 1019.3 1019.4 0.0
18/10:38am 15.6 10.6 3.4 44 5.6 NNE 19 37 10 20 1019.8 1019.9 0.0
18/10:30am 15.3 12.0 4.7 49 5.0 NE 11 17 6 9 1020.0 1020.1 0.0
18/10:00am 13.6 10.8 5.3 57 3.9 ENE 9 13 5 7 1020.6 1020.7 0.0
18/09:30am 12.3 11.0 4.0 57 3.8 CALM 0 0 0 0 1021.1 1021.2 0.0
18/09:00am 9.2 8.1 5.2 76 1.8 CALM 0 6 0 3 1021.5 1021.6 0.0
18/08:30am 8.1 5.7 5.2 82 1.3 SE 7 11 4 6 1021.6 1021.7 0.0
18/08:00am 5.3 4.2 5.3 100 0.0 CALM 0 6 0 3 1021.5 1021.6 0.0
18/07:30am 3.4 0.8 3.4 100 0.0 ESE 6 7 3 4 1021.5 1021.6 0.0
18/07:00am 0.0 -2.8 -0.1 99 0.0 WSW 4 9 2 5 1021.6 1021.7 0.0
18/06:30am -0.8 -3.7 -0.9 99 0.0 SW 4 9 2 5 1021.6 1021.7 0.0
18/06:00am -0.1 -3.3 -0.2 99 0.0 SW 6 7 3 4 1021.7 1021.8 0.0
18/05:49am -0.2 -3.4 -0.3 99 0.0 SSW 6 6 3 3 1021.7 1021.8 0.0
18/05:30am 0.3 -2.8 0.2 99 0.0 S 6 7 3 4 1021.7 1021.8 0.0
18/05:00am 0.5 -2.6 0.4 99 0.0 S 6 7 3 4 1021.6 1021.7 0.0
18/04:58am 0.6 -2.4 0.5 99 0.0 S 6 7 3 4 1021.6 1021.7 0.0
18/04:48am 0.4 -2.9 0.3 99 0.0 S 7 7 4 4 1021.6 1021.7 0.0
18/04:30am 0.5 -2.8 0.4 99 0.0 S 7 9 4 5 1021.6 1021.7 0.0
18/04:20am 0.4 -2.9 0.3 99 0.0 SSW 7 9 4 5 1021.7 1021.8 0.0
18/04:00am -0.2 -3.6 -0.3 99 0.0 SW 7 9 4 5 1021.7 1021.8 0.0
18/03:35am 0.7 -2.3 0.6 99 0.0 S 6 7 3 4 1021.7 1021.8 0.0
18/03:30am 0.3 -3.0 0.2 99 0.0 SSW 7 7 4 4 1021.8 1021.9 0.0
18/03:11am 1.2 -1.8 1.1 99 0.0 SSW 6 7 3 4 1022.1 1022.2 0.0
18/03:10am 1.0 -2.0 0.9 99 0.0 SSW 6 7 3 4 1022.2 1022.3 0.0
18/03:00am 0.9 -2.1 0.8 99 0.0 SSE 6 7 3 4 1022.2 1022.3 0.0
18/02:47am 1.2 -1.9 1.1 99 0.0 SSW 7 9 4 5 1022.4 1022.5 0.0
18/02:30am -0.2 -3.9 -0.3 99 0.0 SW 9 9 5 5 1022.6 1022.7 0.0
18/02:00am 0.9 -2.1 0.8 99 0.0 S 6 7 3 4 1022.9 1023.0 0.0
18/01:30am 0.8 -2.8 0.7 99 0.0 SSW 9 9 5 5 1023.4 1023.6 0.0
18/01:00am 1.6 -1.9 1.5 99 0.0 SSW 9 11 5 6 1023.7 1023.9 0.0
18/12:30am 1.2 -1.8 1.1 99 0.0 S 6 6 3 3 1023.9 1024.1 0.0
18/12:00am 1.1 -2.1 1.0 99 0.0 S 7 9 4 5 1023.9 1024.1 0.0
 
Date/Time
EST
Temp
°C
App
Temp
°C
Dew
Point
°C
Rel
Hum
%
Delta-T
°C
Wind Press
QNH
hPa
Press
MSL
hPa
Rain since
9am
mm
Dir  Spd
km/h
Gust
km/h
Spd
kts
Gust
kts
17/11:30pm 2.2 -0.8 2.1 99 0.0 SSW 7 7 4 4 1024.1 1024.3 0.0
17/11:00pm 3.5 0.7 3.4 99 0.0 SSE 7 9 4 5 1024.2 1024.4 0.0
17/10:30pm 2.8 -0.1 2.7 99 0.0 S 7 9 4 5 1024.2 1024.4 0.0
17/10:00pm 2.4 -0.6 2.1 98 0.1 SSW 7 9 4 5 1024.2 1024.4 0.0
17/09:30pm 3.9 1.2 3.8 99 0.0 SSW 7 9 4 5 1024.2 1024.4 0.0
17/09:00pm 3.7 0.9 3.4 98 0.1 SW 7 9 4 5 1024.1 1024.3 0.0
17/08:30pm 4.3 2.5 3.4 94 0.4 SSW 2 9 1 5 1024.1 1024.3 0.0
17/08:00pm 5.8 4.6 4.4 91 0.6 CALM 0 0 0 0 1024.0 1024.2 0.0
17/07:30pm 7.0 5.8 4.5 84 1.1 CALM 0 0 0 0 1023.9 1024.1 0.0
17/07:00pm 8.2 6.8 5.3 82 1.3 SSE 2 7 1 4 1024.1 1024.3 0.0
17/06:30pm 11.0 9.5 4.9 66 2.8 N 2 6 1 3 1023.8 1024.0 0.0
17/06:00pm 12.2 9.8 4.2 58 3.6 N 6 7 3 4 1023.5 1023.7 0.0
17/05:30pm 13.8 11.4 5.2 56 4.1 NW 7 11 4 6 1023.8 1024.0 0.0

Other Formats:

Comma delimited format used in spreadsheet applications
http://www.bom.gov.au/fwo/IDV60801/IDV60801.94889.axf

JavaScript Object Notation format (JSON) in row-major order
http://www.bom.gov.au/fwo/IDV60801/IDV60801.94889.json